Terminal Aerodrome Forecast
Issued by NWS

Home | Current Version | Previous Version | Text Only | Print | Product List | Glossary Off
Versions: 1 2 3 4 5 6 7 8 9 10 11 12 13 14 15 16 17 18

000
FTUS43 KUNR 221500 AAA
TAFGCC
TAF AMD
KGCC 221518Z 2215/2312 17012KT P6SM BKN250
     FM221900 18012G22KT P6SM SCT100 BKN250
     FM230100 17010KT P6SM BKN200
     FM230700 21022G32KT P6SM BKN150=

USA.gov is the U.S. government's official web portal to all federal, state and local government web resources and services.